Time;durP1;ratioP1;P1;durP2;ratioP2;P2;SDS_P1;SDS_P2;PMS_P1;PMS_P2;Temp;Humidity;BMP_temperature;BMP_pressure;BME280_temperature;BME280_humidity;BME280_pressure;Samples;Min_cycle;Max_cycle;Signal;HPM_P1;HPM_P2
2022/09/25 00:02:14;;;;;;;1.70;1.40;;;12.70;86.50;;;;;;1935032;74;21090;-57
2022/09/25 00:04:43;;;;;;;1.90;1.70;;;12.80;86.80;;;;;;1934866;74;21030;-57
2022/09/25 00:07:13;;;;;;;2.05;1.50;;;12.80;87.20;;;;;;1935065;74;21088;-57
2022/09/25 00:09:42;;;;;;;3.15;1.90;;;12.90;87.20;;;;;;1935030;74;21008;-57
2022/09/25 00:12:12;;;;;;;5.37;1.85;;;12.80;87.00;;;;;;1934963;74;21085;-58
2022/09/25 00:14:41;;;;;;;2.00;1.35;;;12.70;86.30;;;;;;1935023;74;21438;-57
2022/09/25 00:17:11;;;;;;;2.33;1.40;;;12.50;86.50;;;;;;1934939;74;21074;-58
2022/09/25 00:19:49;;;;;;;1.67;1.50;;;12.40;87.70;;;;;;1934933;74;21027;-57
2022/09/25 00:22:20;;;;;;;1.90;1.37;;;12.20;87.30;;;;;;1935091;74;21038;-58
2022/09/25 00:24:49;;;;;;;2.47;1.57;;;12.10;87.20;;;;;;1935174;74;21027;-57
2022/09/25 00:27:18;;;;;;;4.25;1.32;;;11.90;87.00;;;;;;1935104;74;21039;-57
2022/09/25 00:29:48;;;;;;;2.35;1.40;;;11.80;87.60;;;;;;1935161;74;21523;-57
2022/09/25 00:32:17;;;;;;;3.87;1.60;;;11.60;87.70;;;;;;1935092;74;21085;-57
2022/09/25 00:34:46;;;;;;;1.35;1.25;;;11.50;87.90;;;;;;1935230;74;21027;-57
2022/09/25 00:37:16;;;;;;;2.17;1.42;;;11.50;88.50;;;;;;1935116;74;21035;-57
2022/09/25 00:39:45;;;;;;;3.60;1.85;;;11.40;88.70;;;;;;1935133;74;21121;-58
2022/09/25 00:42:15;;;;;;;2.65;1.95;;;11.40;89.30;;;;;;1935201;74;21014;-57
2022/09/25 00:44:56;;;;;;;3.42;2.15;;;11.50;90.00;;;;;;1934962;74;21058;-57
2022/09/25 00:47:32;;;;;;;2.92;1.72;;;11.60;89.70;;;;;;1935326;74;21128;-57
2022/09/25 00:50:05;;;;;;;3.15;1.87;;;11.70;89.70;;;;;;1906784;73;21164;-57
2022/09/25 00:52:34;;;;;;;2.92;2.25;;;11.80;89.80;;;;;;1906466;75;21103;-56
2022/09/25 00:55:06;;;;;;;2.40;1.87;;;11.90;89.80;;;;;;1906513;75;21028;-56
2022/09/25 00:57:38;;;;;;;3.92;2.12;;;11.90;89.30;;;;;;1906514;75;21101;-56
2022/09/25 01:00:10;;;;;;;2.47;1.87;;;11.90;89.20;;;;;;1906425;75;21106;-56
2022/09/25 01:02:43;;;;;;;2.25;1.90;;;11.90;89.80;;;;;;1906487;74;21097;-56
2022/09/25 01:05:17;;;;;;;2.12;1.80;;;11.90;89.60;;;;;;1906498;75;20996;-57
2022/09/25 01:07:48;;;;;;;3.08;1.75;;;12.00;89.90;;;;;;1906538;75;21086;-57
2022/09/25 01:10:20;;;;;;;2.37;2.05;;;12.00;90.00;;;;;;1906371;75;21133;-56
2022/09/25 01:12:50;;;;;;;3.12;1.98;;;12.00;90.00;;;;;;1906397;75;21062;-56
2022/09/25 01:15:22;;;;;;;2.17;1.75;;;12.00;90.10;;;;;;1906421;75;21000;-56
2022/09/25 01:18:00;;;;;;;4.05;1.85;;;12.00;90.00;;;;;;1906357;75;21067;-56
2022/09/25 01:20:49;;;;;;;3.00;1.92;;;12.00;90.10;;;;;;1906517;75;21020;-56
2022/09/25 01:23:40;;;;;;;3.83;2.10;;;12.00;90.00;;;;;;1906437;75;21047;-57
2022/09/25 01:26:40;;;;;;;2.08;1.80;;;12.00;90.00;;;;;;1906459;75;21083;-56
2022/09/25 01:29:27;;;;;;;2.37;1.98;;;12.10;90.10;;;;;;1905756;74;21008;-57
2022/09/25 01:32:20;;;;;;;4.00;1.80;;;12.10;90.10;;;;;;1906399;75;21031;-57
2022/09/25 01:35:04;;;;;;;2.05;1.60;;;12.10;90.10;;;;;;1904998;74;21106;-57
2022/09/25 01:37:50;;;;;;;3.20;1.80;;;12.20;90.20;;;;;;1906183;75;21495;-57
2022/09/25 01:40:25;;;;;;;1.98;1.72;;;12.20;90.20;;;;;;1906527;75;21047;-57
2022/09/25 01:43:00;;;;;;;2.40;1.60;;;12.30;90.20;;;;;;1906396;75;21667;-57
2022/09/25 01:45:35;;;;;;;4.78;1.37;;;12.30;90.20;;;;;;1906055;75;21091;-57
2022/09/25 01:48:07;;;;;;;4.33;1.80;;;12.30;89.80;;;;;;1906300;75;21026;-57
2022/09/25 01:50:40;;;;;;;3.55;1.62;;;12.20;88.30;;;;;;1906425;75;21051;-57
2022/09/25 01:53:12;;;;;;;3.95;2.00;;;12.00;88.70;;;;;;1905301;74;21486;-57
2022/09/25 01:55:46;;;;;;;2.42;1.70;;;11.80;88.30;;;;;;1906466;75;21525;-56
2022/09/25 01:58:33;;;;;;;2.67;1.60;;;11.60;88.80;;;;;;1906489;75;21004;-56
2022/09/25 02:01:05;;;;;;;2.55;1.42;;;11.40;89.20;;;;;;1906432;75;21015;-57
2022/09/25 02:03:39;;;;;;;2.75;1.62;;;11.20;89.70;;;;;;1904984;74;21032;-57
2022/09/25 02:06:11;;;;;;;1.60;1.50;;;11.20;89.60;;;;;;1905301;73;21099;-57
2022/09/25 02:08:46;;;;;;;4.08;1.60;;;11.10;89.90;;;;;;1906245;75;21450;-57
2022/09/25 02:11:15;;;;;;;3.15;1.70;;;11.00;90.00;;;;;;1906554;75;21148;-57
2022/09/25 02:13:56;;;;;;;1.70;1.35;;;10.90;89.80;;;;;;1906276;75;21023;-57
2022/09/25 02:16:31;;;;;;;2.47;1.70;;;10.90;89.90;;;;;;1905400;72;21024;-58
2022/09/25 02:22:03;;;;;;;1.90;1.70;;;10.70;89.50;;;;;;1906390;75;21067;-56
2022/09/25 02:24:38;;;;;;;2.47;1.65;;;10.70;89.80;;;;;;1864026;74;21086;-56
2022/09/25 02:27:07;;;;;;;6.75;1.82;;;10.50;90.00;;;;;;1887991;75;21068;-56
2022/09/25 02:29:37;;;;;;;2.65;1.62;;;10.50;90.10;;;;;;1906372;75;21051;-56
2022/09/25 02:32:11;;;;;;;4.45;1.47;;;10.50;90.00;;;;;;1906385;75;21109;-57
2022/09/25 02:34:41;;;;;;;2.00;1.50;;;10.40;90.30;;;;;;1906365;75;21486;-56
2022/09/25 02:37:18;;;;;;;4.67;2.15;;;10.40;90.30;;;;;;1906264;75;21024;-56
2022/09/25 02:39:50;;;;;;;2.65;1.60;;;10.40;90.40;;;;;;1906435;75;21024;-56
2022/09/25 02:42:27;;;;;;;1.65;1.27;;;10.40;90.30;;;;;;1906349;75;21113;-57
2022/09/25 02:45:05;;;;;;;3.02;1.60;;;10.40;90.30;;;;;;1905841;73;21085;-56
2022/09/25 02:48:07;;;;;;;2.90;1.57;;;10.40;90.40;;;;;;1905863;75;21126;-56
2022/09/25 02:50:40;;;;;;;3.25;1.27;;;10.40;90.50;;;;;;1929260;74;21191;-57
2022/09/25 02:53:29;;;;;;;1.92;1.65;;;10.40;90.70;;;;;;1934371;74;21062;-57
2022/09/25 02:56:01;;;;;;;2.55;1.47;;;10.50;90.70;;;;;;1935158;74;21023;-57
2022/09/25 02:58:36;;;;;;;1.85;1.60;;;10.70;90.70;;;;;;1932907;74;21480;-58
2022/09/25 03:01:08;;;;;;;4.40;1.75;;;10.80;90.80;;;;;;1935225;74;21081;-57
2022/09/25 03:03:39;;;;;;;3.75;2.08;;;10.80;90.80;;;;;;1935116;74;21038;-57
2022/09/25 03:06:08;;;;;;;2.45;1.87;;;10.90;90.90;;;;;;1935003;74;21030;-57
2022/09/25 03:08:41;;;;;;;1.45;1.25;;;11.00;90.90;;;;;;1935019;74;21018;-57
2022/09/25 03:11:16;;;;;;;1.60;1.45;;;11.00;90.70;;;;;;1935101;74;20995;-57
2022/09/25 03:13:45;;;;;;;;;;;11.10;90.90;;;;;;1937923;74;21434;-58
2022/09/25 03:16:22;;;;;;;6.55;2.15;;;11.10;91.00;;;;;;1935020;74;20140;-57
2022/09/25 03:18:52;;;;;;;3.05;1.90;;;11.20;90.80;;;;;;1934577;73;21104;-57
2022/09/25 03:21:21;;;;;;;4.50;1.95;;;11.20;90.60;;;;;;1934994;74;21020;-57
2022/09/25 03:23:51;;;;;;;4.12;2.20;;;11.20;90.50;;;;;;1935057;74;21062;-57
2022/09/25 03:26:20;;;;;;;2.90;2.22;;;11.20;90.60;;;;;;1935148;74;21089;-57
2022/09/25 03:28:50;;;;;;;3.40;2.40;;;11.10;90.80;;;;;;1934988;74;21027;-58
2022/09/25 03:31:19;;;;;;;5.97;2.95;;;11.20;91.00;;;;;;1935107;74;21164;-58
2022/09/25 03:33:50;;;;;;;9.40;2.80;;;11.30;91.00;;;;;;1934976;74;21110;-57
2022/09/25 03:36:21;;;;;;;7.17;2.58;;;11.40;90.90;;;;;;1935101;74;21015;-58
2022/09/25 03:38:53;;;;;;;4.87;2.33;;;11.50;90.90;;;;;;1935010;74;20999;-57
2022/09/25 03:41:22;;;;;;;4.33;2.10;;;11.60;90.90;;;;;;1935013;74;21007;-57
2022/09/25 03:43:52;;;;;;;2.62;1.92;;;11.70;90.80;;;;;;1934893;74;21010;-57
2022/09/25 03:46:24;;;;;;;3.15;2.35;;;11.80;90.70;;;;;;1934908;74;21096;-58
2022/09/25 03:48:54;;;;;;;3.30;1.70;;;11.80;90.70;;;;;;1934995;74;21100;-57
2022/09/25 03:51:25;;;;;;;2.72;1.67;;;11.80;90.40;;;;;;1908589;74;21067;-57
2022/09/25 03:53:55;;;;;;;5.70;2.08;;;11.80;90.60;;;;;;1906193;74;21443;-57
2022/09/25 03:56:27;;;;;;;6.25;1.70;;;11.90;90.70;;;;;;1906132;75;21125;-57
2022/09/25 03:58:56;;;;;;;3.70;1.85;;;12.00;90.70;;;;;;1906322;75;21011;-57
2022/09/25 04:01:26;;;;;;;3.42;1.92;;;12.00;90.60;;;;;;1906331;75;21450;-57
2022/09/25 04:03:56;;;;;;;3.05;1.47;;;12.10;90.70;;;;;;1906258;75;21105;-57
2022/09/25 04:06:26;;;;;;;7.15;2.02;;;12.10;90.70;;;;;;1906245;75;20999;-57
2022/09/25 04:08:56;;;;;;;2.08;1.62;;;12.20;90.60;;;;;;1906291;75;21023;-57
2022/09/25 04:11:25;;;;;;;4.83;1.70;;;12.20;90.10;;;;;;1906190;75;21060;-57
2022/09/25 04:13:55;;;;;;;4.45;1.75;;;12.20;90.20;;;;;;1906191;75;21020;-57
2022/09/25 04:16:26;;;;;;;3.72;1.60;;;12.30;90.30;;;;;;1906181;75;21083;-57
2022/09/25 04:18:55;;;;;;;3.87;1.75;;;12.40;90.40;;;;;;1906183;75;21004;-57
2022/09/25 04:21:25;;;;;;;4.35;1.85;;;12.40;90.20;;;;;;1906309;75;20996;-57
2022/09/25 04:26:42;;;;;;;5.42;1.37;;;12.50;90.00;;;;;;1906225;75;21028;-56
2022/09/25 04:29:13;;;;;;;3.25;2.22;;;12.50;89.70;;;;;;1906300;75;21130;-56
2022/09/25 04:31:42;;;;;;;5.60;1.50;;;12.60;89.20;;;;;;1906243;75;21434;-56
2022/09/25 04:34:12;;;;;;;1.82;1.52;;;12.70;88.70;;;;;;1906325;75;21008;-56
2022/09/25 04:36:41;;;;;;;4.12;1.80;;;12.80;88.30;;;;;;1906167;75;21032;-56
2022/09/25 04:39:10;;;;;;;4.08;1.92;;;12.80;87.30;;;;;;1906304;75;21411;-56
2022/09/25 04:41:42;;;;;;;8.15;1.98;;;12.80;87.10;;;;;;1906442;75;21093;-56
2022/09/25 04:44:11;;;;;;;2.45;1.60;;;12.90;87.20;;;;;;1906151;75;21620;-56
2022/09/25 04:46:40;;;;;;;3.50;2.10;;;12.90;87.10;;;;;;1906257;75;21036;-56
2022/09/25 04:49:10;;;;;;;5.22;1.50;;;13.00;87.50;;;;;;1906210;75;21012;-56
2022/09/25 04:51:39;;;;;;;2.47;1.60;;;13.10;87.00;;;;;;1928158;74;21074;-56
2022/09/25 04:54:09;;;;;;;4.85;1.87;;;13.20;86.70;;;;;;1935045;74;21489;-57
2022/09/25 04:56:38;;;;;;;3.10;2.40;;;13.30;86.40;;;;;;1934829;74;21085;-56
2022/09/25 04:59:10;;;;;;;4.72;2.65;;;13.30;85.70;;;;;;1934979;74;21026;-56
2022/09/25 05:01:39;;;;;;;5.55;3.10;;;13.40;86.40;;;;;;1934606;73;21062;-56
2022/09/25 05:04:08;;;;;;;2.58;1.67;;;13.40;87.00;;;;;;1934979;74;21034;-56
2022/09/25 05:06:37;;;;;;;4.55;2.10;;;13.50;86.80;;;;;;1934966;74;21093;-56
2022/09/25 05:09:07;;;;;;;2.35;1.47;;;13.60;86.20;;;;;;1934970;74;21027;-56
2022/09/25 05:11:36;;;;;;;3.20;1.60;;;13.70;85.80;;;;;;1934929;74;21006;-56
2022/09/25 05:14:05;;;;;;;6.15;1.40;;;13.80;84.40;;;;;;1934942;74;21098;-56
2022/09/25 05:16:35;;;;;;;7.00;1.98;;;13.90;84.50;;;;;;1934950;74;21422;-56
2022/09/25 05:19:04;;;;;;;3.15;1.90;;;13.90;84.20;;;;;;1935014;74;21128;-56
2022/09/25 05:21:34;;;;;;;2.27;1.75;;;14.00;83.70;;;;;;1934814;74;21070;-56
2022/09/25 05:24:04;;;;;;;4.05;1.85;;;14.10;83.40;;;;;;1934814;74;21062;-56
2022/09/25 05:26:33;;;;;;;2.92;1.57;;;14.10;83.70;;;;;;1934943;74;21081;-56
2022/09/25 05:29:03;;;;;;;2.20;1.55;;;14.20;82.90;;;;;;1934982;74;21108;-56
2022/09/25 05:31:33;;;;;;;4.70;1.67;;;14.20;82.50;;;;;;1934987;74;21088;-56
2022/09/25 05:34:02;;;;;;;2.12;1.60;;;14.30;82.00;;;;;;1934971;74;21050;-56
2022/09/25 05:36:33;;;;;;;3.00;1.65;;;14.40;82.10;;;;;;1935009;74;21035;-56
2022/09/25 05:39:02;;;;;;;2.40;1.52;;;14.50;81.70;;;;;;1934940;74;21038;-56
2022/09/25 05:41:35;;;;;;;3.30;1.30;;;14.50;80.80;;;;;;1934906;74;21092;-56
2022/09/25 05:44:08;;;;;;;5.95;1.77;;;14.60;80.80;;;;;;1934794;74;21497;-57
2022/09/25 05:46:36;;;;;;;2.47;2.10;;;14.60;80.10;;;;;;1933674;73;21159;-56
2022/09/25 05:49:06;;;;;;;1.98;1.50;;;14.70;80.10;;;;;;1935070;74;21034;-57
2022/09/25 05:51:35;;;;;;;2.22;1.55;;;14.70;79.70;;;;;;1934874;74;21141;-57
2022/09/25 05:54:05;;;;;;;2.22;1.40;;;14.80;79.90;;;;;;1935034;74;21092;-57
2022/09/25 05:56:34;;;;;;;2.90;1.55;;;14.90;79.70;;;;;;1934933;74;21111;-57
2022/09/25 05:59:04;;;;;;;2.65;1.75;;;15.00;79.10;;;;;;1934893;74;21085;-57
2022/09/25 06:01:33;;;;;;;1.40;1.30;;;15.00;79.40;;;;;;1934898;74;21069;-58
2022/09/25 06:04:03;;;;;;;1.62;1.37;;;15.10;79.00;;;;;;1934846;74;21007;-57
2022/09/25 06:06:32;;;;;;;6.62;1.82;;;15.10;78.90;;;;;;1934996;74;21171;-57
2022/09/25 06:09:01;;;;;;;4.37;2.10;;;15.20;78.40;;;;;;1934936;74;21092;-57
2022/09/25 06:11:31;;;;;;;3.72;1.92;;;15.20;78.70;;;;;;1934988;74;21085;-57
2022/09/25 06:14:00;;;;;;;1.85;1.62;;;15.30;78.80;;;;;;1934924;74;20986;-57
2022/09/25 06:16:29;;;;;;;2.67;1.80;;;15.30;78.40;;;;;;1934878;74;21026;-57
2022/09/25 06:18:59;;;;;;;2.75;1.50;;;15.40;78.30;;;;;;1934888;74;21006;-57
2022/09/25 06:21:29;;;;;;;2.67;1.52;;;15.50;78.50;;;;;;1934984;74;21022;-57
2022/09/25 06:23:58;;;;;;;3.67;1.98;;;15.50;78.20;;;;;;1934846;74;21092;-57
2022/09/25 06:26:28;;;;;;;6.45;2.20;;;15.60;78.30;;;;;;1934901;74;21046;-57
2022/09/25 06:28:59;;;;;;;2.87;1.92;;;15.70;78.00;;;;;;1935009;74;21023;-58
2022/09/25 06:31:28;;;;;;;2.33;1.62;;;15.70;78.00;;;;;;1934848;74;21224;-57
2022/09/25 06:33:57;;;;;;;2.02;1.72;;;15.80;77.50;;;;;;1934922;74;21096;-57
2022/09/25 06:36:27;;;;;;;3.65;2.17;;;15.80;77.60;;;;;;1934821;74;21094;-57
2022/09/25 06:38:56;;;;;;;5.05;1.98;;;15.90;77.90;;;;;;1934958;74;21050;-57
2022/09/25 06:41:26;;;;;;;4.60;1.85;;;16.00;78.10;;;;;;1934968;74;21081;-57
2022/09/25 06:43:55;;;;;;;2.33;1.60;;;16.00;77.80;;;;;;1934871;74;21441;-57
2022/09/25 06:46:25;;;;;;;2.87;1.70;;;16.10;77.70;;;;;;1934923;74;21062;-57
2022/09/25 06:48:56;;;;;;;3.42;1.60;;;16.20;76.90;;;;;;1934898;74;21066;-57
2022/09/25 06:51:31;;;;;;;2.70;1.75;;;16.20;76.80;;;;;;1934490;73;21543;-57
2022/09/25 06:54:00;;;;;;;1.63;1.40;;;16.30;75.50;;;;;;1935132;74;21047;-58
2022/09/25 06:56:29;;;;;;;2.27;1.30;;;16.30;75.30;;;;;;1934852;74;21085;-57
2022/09/25 06:58:58;;;;;;;3.00;1.77;;;16.40;75.50;;;;;;1934955;74;21030;-58
2022/09/25 07:01:28;;;;;;;2.12;1.60;;;16.40;75.70;;;;;;1934828;74;21018;-57
2022/09/25 07:03:57;;;;;;;2.67;1.87;;;16.40;75.60;;;;;;1934870;74;21104;-57
2022/09/25 07:06:30;;;;;;;4.30;2.30;;;16.50;75.90;;;;;;1934883;74;21043;-57
2022/09/25 07:08:58;;;;;;;3.40;2.25;;;16.50;75.10;;;;;;1934996;73;21109;-57
2022/09/25 07:11:28;;;;;;;4.30;2.35;;;16.40;75.10;;;;;;1934905;74;21055;-58
2022/09/25 07:13:57;;;;;;;2.08;1.70;;;16.40;74.90;;;;;;1934957;74;21057;-58
2022/09/25 07:16:28;;;;;;;3.25;2.15;;;16.40;75.10;;;;;;1934812;74;21039;-57
2022/09/25 07:18:59;;;;;;;2.65;1.57;;;16.30;75.20;;;;;;1935017;74;21019;-57
2022/09/25 07:21:30;;;;;;;1.90;1.72;;;16.30;75.70;;;;;;1934985;74;21097;-57
2022/09/25 07:23:59;;;;;;;5.97;2.58;;;16.30;75.60;;;;;;1934875;74;21495;-57
2022/09/25 07:26:32;;;;;;;5.95;2.22;;;16.30;75.70;;;;;;1934838;74;21046;-57
2022/09/25 07:29:03;;;;;;;2.27;1.60;;;16.30;75.20;;;;;;1934949;74;21046;-57
2022/09/25 07:31:36;;;;;;;3.12;1.87;;;16.40;75.10;;;;;;1934959;74;21019;-57
2022/09/25 07:34:08;;;;;;;5.67;2.08;;;16.50;75.10;;;;;;1934964;74;21116;-57
2022/09/25 07:36:45;;;;;;;4.08;1.90;;;16.60;74.70;;;;;;1934878;74;21523;-58
2022/09/25 07:39:11;;;;;;;3.52;1.77;;;16.70;74.40;;;;;;1933874;74;21023;-57
2022/09/25 07:41:40;;;;;;;2.58;1.60;;;16.70;74.60;;;;;;1934860;74;21027;-57
2022/09/25 07:44:10;;;;;;;4.25;1.85;;;16.80;73.80;;;;;;1934774;74;21026;-57
2022/09/25 07:46:42;;;;;;;3.77;1.70;;;16.90;73.20;;;;;;1934706;74;21116;-57
2022/09/25 07:49:12;;;;;;;3.50;1.70;;;16.90;73.10;;;;;;1934912;74;20995;-57
2022/09/25 07:51:41;;;;;;;4.53;1.62;;;16.90;73.00;;;;;;1934716;74;21027;-57
2022/09/25 07:54:10;;;;;;;3.40;1.95;;;16.80;72.10;;;;;;1934845;74;21098;-57
2022/09/25 07:56:40;;;;;;;2.52;1.57;;;16.80;72.20;;;;;;1934755;74;21039;-57
2022/09/25 07:59:09;;;;;;;2.02;1.80;;;16.80;71.30;;;;;;1934869;74;21027;-57
2022/09/25 08:01:38;;;;;;;1.92;1.55;;;16.80;72.10;;;;;;1934830;74;21143;-57
2022/09/25 08:04:08;;;;;;;6.30;3.08;;;16.70;71.90;;;;;;1934726;74;21031;-57
2022/09/25 08:06:37;;;;;;;1.92;1.55;;;16.70;71.90;;;;;;1934820;74;21019;-57
2022/09/25 08:09:07;;;;;;;3.85;2.47;;;16.70;71.70;;;;;;1934822;74;21086;-58
2022/09/25 08:11:36;;;;;;;4.22;2.00;;;16.70;72.00;;;;;;1934639;74;21022;-57
2022/09/25 08:14:05;;;;;;;5.25;2.27;;;16.70;71.80;;;;;;1934743;74;21062;-57
2022/09/25 08:16:34;;;;;;;5.00;2.00;;;16.70;72.50;;;;;;1934567;74;21026;-57
2022/09/25 08:19:04;;;;;;;5.08;2.47;;;16.70;72.90;;;;;;1934874;74;21093;-57
2022/09/25 08:21:34;;;;;;;6.00;1.82;;;16.70;73.00;;;;;;1934665;74;21046;-56
2022/09/25 08:24:04;;;;;;;4.80;2.27;;;16.70;72.80;;;;;;1934683;74;21038;-57
2022/09/25 08:26:33;;;;;;;4.22;2.72;;;16.70;73.10;;;;;;1934843;74;21007;-57
2022/09/25 08:29:02;;;;;;;2.70;1.75;;;16.70;73.20;;;;;;1934636;74;21477;-57
2022/09/25 08:31:33;;;;;;;2.40;1.67;;;16.80;73.70;;;;;;1934565;74;21034;-57
2022/09/25 08:34:02;;;;;;;5.58;2.00;;;16.80;74.00;;;;;;1934813;74;21046;-57
2022/09/25 08:36:32;;;;;;;3.67;2.40;;;16.80;74.30;;;;;;1934851;74;21108;-57
2022/09/25 08:39:01;;;;;;;2.65;1.85;;;16.90;74.60;;;;;;1934778;74;21120;-56
2022/09/25 08:41:38;;;;;;;3.05;1.40;;;16.90;74.10;;;;;;1934761;74;21030;-56
2022/09/25 08:44:24;;;;;;;1.70;1.30;;;16.90;74.80;;;;;;1933659;74;21043;-56
2022/09/25 08:49:52;;;;;;;3.15;1.50;;;17.10;74.90;;;;;;1934903;74;21128;-56
2022/09/25 08:52:23;;;;;;;2.90;1.57;;;17.30;74.00;;;;;;1921297;74;21453;-57
2022/09/25 08:54:53;;;;;;;1.92;1.35;;;17.40;72.80;;;;;;1935052;74;21096;-57
2022/09/25 08:57:39;;;;;;;5.30;1.90;;;17.60;72.10;;;;;;1934807;74;21003;-57
2022/09/25 09:00:16;;;;;;;1.47;1.37;;;17.70;70.80;;;;;;1934996;74;21015;-57
2022/09/25 09:02:48;;;;;;;4.37;1.70;;;17.80;69.90;;;;;;1933847;73;21544;-57
2022/09/25 09:05:30;;;;;;;1.98;1.70;;;17.90;70.10;;;;;;1933158;74;21054;-57
2022/09/25 09:08:02;;;;;;;3.10;1.40;;;17.90;70.20;;;;;;1934930;74;21011;-57
2022/09/25 09:10:39;;;;;;;3.37;1.60;;;18.00;68.00;;;;;;1934836;74;21007;-58
2022/09/25 09:13:28;;;;;;;2.72;1.60;;;18.00;68.80;;;;;;1934925;74;21033;-57
2022/09/25 09:16:03;;;;;;;4.78;1.50;;;18.00;67.50;;;;;;1934867;74;21441;-57
2022/09/25 09:18:40;;;;;;;6.22;1.40;;;18.10;68.60;;;;;;1934817;74;21113;-57
2022/09/25 09:21:24;;;;;;;3.40;1.40;;;18.10;68.40;;;;;;1934875;74;21553;-57
2022/09/25 09:24:16;;;;;;;4.83;1.35;;;18.20;65.30;;;;;;1934748;73;21026;-57
2022/09/25 09:27:07;;;;;;;2.98;2.22;;;18.30;63.00;;;;;;1935023;74;21106;-57
2022/09/25 09:29:48;;;;;;;4.00;1.57;;;18.40;62.80;;;;;;1934830;74;21043;-56
2022/09/25 09:32:32;;;;;;;1.50;1.20;;;18.40;63.30;;;;;;1934192;74;21089;-56
2022/09/25 09:35:19;;;;;;;2.50;1.40;;;18.40;63.70;;;;;;1934517;74;21501;-57
2022/09/25 09:38:17;;;;;;;1.85;1.20;;;18.40;61.00;;;;;;1934084;74;21027;-57
2022/09/25 09:41:04;;;;;;;1.50;1.30;;;18.40;62.00;;;;;;1934454;74;21058;-57
2022/09/25 09:43:42;;;;;;;1.95;1.30;;;18.40;62.60;;;;;;1935011;74;21018;-57
2022/09/25 09:46:14;;;;;;;2.25;1.50;;;18.40;62.50;;;;;;1934458;73;21445;-57
2022/09/25 09:48:49;;;;;;;2.17;1.20;;;18.30;62.40;;;;;;1935040;74;20999;-56
2022/09/25 09:51:25;;;;;;;;;;;18.30;62.20;;;;;;1937306;73;21039;-57
2022/09/25 09:53:56;;;;;;;1.22;1.10;;;18.30;61.90;;;;;;1921060;74;20103;-57
2022/09/25 09:56:29;;;;;;;1.55;1.20;;;18.40;61.40;;;;;;1904679;74;21172;-57
2022/09/25 09:59:04;;;;;;;1.57;1.07;;;18.50;60.90;;;;;;1905493;75;21047;-57
2022/09/25 10:01:36;;;;;;;1.50;1.12;;;18.50;59.50;;;;;;1906195;75;21028;-57
2022/09/25 10:04:13;;;;;;;2.95;1.05;;;18.50;58.80;;;;;;1906129;75;21562;-57
2022/09/25 10:06:48;;;;;;;2.95;1.40;;;18.60;58.00;;;;;;1906191;75;21031;-57
2022/09/25 10:09:17;;;;;;;;;;;18.50;58.10;;;;;;1909155;75;21104;-57
2022/09/25 10:11:49;;;;;;;1.30;1.20;;;18.60;56.00;;;;;;1906105;75;20431;-57
2022/09/25 10:14:22;;;;;;;1.75;1.15;;;18.60;57.30;;;;;;1906071;75;21089;-57
2022/09/25 10:16:52;;;;;;;1.45;1.20;;;18.70;57.00;;;;;;1906204;75;21036;-57
2022/09/25 10:19:27;;;;;;;1.45;1.35;;;18.70;57.20;;;;;;1906090;75;21111;-57
2022/09/25 10:22:13;;;;;;;2.00;1.67;;;18.70;57.20;;;;;;1906351;74;21487;-57
2022/09/25 10:25:04;;;;;;;1.42;1.20;;;18.70;57.90;;;;;;1906000;75;21048;-57
2022/09/25 10:27:44;;;;;;;1.52;1.15;;;18.80;57.90;;;;;;1906196;75;21044;-57
2022/09/25 10:30:15;;;;;;;2.85;1.37;;;18.90;58.30;;;;;;1905979;75;21024;-57
2022/09/25 10:32:47;;;;;;;1.65;1.25;;;19.00;56.10;;;;;;1906113;75;21027;-57
2022/09/25 10:35:19;;;;;;;1.52;1.40;;;19.10;56.00;;;;;;1906126;75;21326;-57
2022/09/25 10:37:53;;;;;;;2.95;1.52;;;19.20;55.90;;;;;;1902376;73;21047;-57
2022/09/25 10:40:30;;;;;;;4.12;2.15;;;19.20;55.80;;;;;;1906223;74;21007;-57
2022/09/25 10:43:05;;;;;;;1.85;1.47;;;19.10;55.70;;;;;;1906210;75;21548;-57
2022/09/25 10:45:37;;;;;;;3.30;1.65;;;19.00;56.10;;;;;;1906399;75;21525;-57
2022/09/25 10:51:10;;;;;;;4.12;1.65;;;19.00;56.40;;;;;;1903969;75;21117;-57
2022/09/25 10:53:39;;;;;;;1.55;1.20;;;18.90;56.30;;;;;;1910817;74;21132;-57
2022/09/25 10:56:12;;;;;;;3.05;1.10;;;18.90;56.50;;;;;;1934988;74;21047;-57
2022/09/25 10:58:56;;;;;;;3.22;1.70;;;18.90;56.50;;;;;;1935062;74;21010;-57
2022/09/25 11:01:37;;;;;;;5.37;1.62;;;18.80;56.60;;;;;;1934964;74;21023;-57
2022/09/25 11:04:15;;;;;;;2.35;1.77;;;18.80;56.50;;;;;;1925441;74;21093;-57
2022/09/25 11:06:51;;;;;;;5.87;2.20;;;18.80;57.00;;;;;;1934861;74;21410;-57
2022/09/25 11:09:22;;;;;;;4.45;1.70;;;18.80;57.30;;;;;;1934159;74;21078;-57
2022/09/25 11:11:54;;;;;;;2.33;1.35;;;18.90;57.20;;;;;;1935041;74;21026;-57
2022/09/25 11:14:31;;;;;;;6.40;1.30;;;19.00;56.60;;;;;;1934912;74;21104;-57
2022/09/25 11:17:04;;;;;;;4.12;1.42;;;19.10;56.40;;;;;;1934968;74;21101;-57
2022/09/25 11:19:35;;;;;;;4.65;2.08;;;19.10;56.60;;;;;;1934848;74;21034;-57
2022/09/25 11:22:28;;;;;;;1.95;1.42;;;19.20;56.80;;;;;;1934784;74;21026;-57
2022/09/25 11:25:17;;;;;;;2.75;1.42;;;19.30;57.00;;;;;;1934333;74;21163;-57
2022/09/25 11:27:52;;;;;;;1.57;1.05;;;19.30;57.00;;;;;;1935022;74;21047;-56
2022/09/25 11:30:23;;;;;;;3.15;1.27;;;19.40;55.80;;;;;;1934856;74;21500;-56
2022/09/25 11:33:13;;;;;;;2.12;1.05;;;19.50;55.80;;;;;;1935067;74;21046;-57
2022/09/25 11:36:06;;;;;;;1.57;1.35;;;19.60;55.00;;;;;;1934725;73;21026;-57
2022/09/25 11:41:40;;;;;;;4.25;1.87;;;19.60;55.20;;;;;;1934886;74;21093;-57
2022/09/25 11:44:33;;;;;;;2.92;1.75;;;19.70;55.80;;;;;;1934832;74;21554;-57
2022/09/25 11:47:25;;;;;;;1.32;1.20;;;19.60;54.70;;;;;;1934891;74;21084;-57
2022/09/25 11:49:57;;;;;;;1.95;1.25;;;19.70;55.00;;;;;;1934979;74;21113;-57
2022/09/25 11:52:50;;;;;;;12.63;1.50;;;19.70;54.80;;;;;;1934837;74;21168;-57
2022/09/25 11:55:45;;;;;;;1.87;1.40;;;19.70;54.20;;;;;;1916783;74;21091;-57
2022/09/25 11:58:32;;;;;;;3.33;1.82;;;19.70;54.50;;;;;;1906210;75;21114;-57
2022/09/25 12:01:08;;;;;;;4.40;2.00;;;19.70;54.40;;;;;;1906027;75;21044;-59
2022/09/25 12:04:06;;;;;;;2.58;1.32;;;19.60;55.00;;;;;;1905808;74;21533;-57
2022/09/25 12:06:47;;;;;;;4.10;1.57;;;19.50;55.20;;;;;;1906034;75;21048;-57
2022/09/25 12:09:25;;;;;;;3.47;1.50;;;19.50;55.60;;;;;;1906081;75;21081;-57
2022/09/25 12:12:04;;;;;;;2.35;1.40;;;19.50;55.60;;;;;;1906169;75;21133;-57
2022/09/25 12:14:51;;;;;;;8.93;1.80;;;19.50;54.70;;;;;;1905519;72;21118;-57
2022/09/25 12:17:38;;;;;;;3.37;1.50;;;19.60;55.10;;;;;;1906096;75;21020;-56
2022/09/25 12:20:41;;;;;;;4.58;1.80;;;19.70;54.30;;;;;;1906098;75;21102;-57
2022/09/25 12:23:13;;;;;;;1.80;1.37;;;19.70;53.90;;;;;;1905544;72;21073;-56
2022/09/25 12:25:54;;;;;;;5.03;1.60;;;19.70;53.10;;;;;;1906168;75;21081;-55
2022/09/25 12:28:52;;;;;;;1.40;1.30;;;19.70;52.80;;;;;;1906198;75;21012;-56
2022/09/25 12:31:37;;;;;;;2.05;1.00;;;19.70;53.10;;;;;;1905766;72;21134;-57
2022/09/25 12:34:18;;;;;;;1.80;1.40;;;19.70;53.20;;;;;;1906146;74;21450;-57
2022/09/25 12:36:56;;;;;;;3.62;1.27;;;19.70;52.90;;;;;;1891945;75;21083;-57
2022/09/25 12:39:44;;;;;;;1.47;1.30;;;19.70;52.90;;;;;;1843898;75;21051;-57
2022/09/25 12:42:20;;;;;;;4.08;1.35;;;19.60;52.80;;;;;;1906253;75;21031;-58
2022/09/25 12:44:51;;;;;;;4.17;1.95;;;19.50;52.70;;;;;;1904748;75;21513;-58
2022/09/25 12:47:26;;;;;;;3.12;1.60;;;19.40;53.30;;;;;;1904754;75;21532;-59
2022/09/25 12:50:16;;;;;;;1.85;1.40;;;19.40;53.70;;;;;;1906103;74;21039;-58
2022/09/25 12:52:55;;;;;;;2.40;1.40;;;19.30;53.90;;;;;;1905187;75;21023;-58
2022/09/25 12:55:27;;;;;;;2.67;1.10;;;19.30;54.30;;;;;;1919210;74;21071;-56
2022/09/25 12:58:20;;;;;;;2.52;1.42;;;19.40;53.90;;;;;;1934883;74;21011;-56
2022/09/25 13:00:49;;;;;;;3.52;1.80;;;19.30;53.80;;;;;;1933568;73;21046;-56
2022/09/25 13:03:39;;;;;;;3.70;1.42;;;19.20;54.60;;;;;;1935038;74;21055;-56
2022/09/25 13:06:11;;;;;;;1.27;1.07;;;19.20;55.10;;;;;;1934408;74;21108;-56
2022/09/25 13:08:52;;;;;;;3.40;1.30;;;19.20;55.60;;;;;;1933278;74;21030;-57
2022/09/25 13:11:37;;;;;;;1.90;1.40;;;19.20;55.90;;;;;;1934985;74;21043;-56
2022/09/25 13:14:09;;;;;;;2.72;1.72;;;19.30;56.10;;;;;;1935122;74;20998;-57
2022/09/25 13:16:38;;;;;;;1.55;1.05;;;19.30;56.30;;;;;;1934962;74;21528;-57
2022/09/25 13:19:13;;;;;;;3.87;1.62;;;19.30;56.00;;;;;;1934886;74;21022;-57
2022/09/25 13:21:46;;;;;;;1.40;1.22;;;19.20;56.20;;;;;;1933182;73;21031;-57
2022/09/25 13:24:17;;;;;;;2.92;1.50;;;19.10;56.50;;;;;;1934766;74;21066;-57
2022/09/25 13:26:49;;;;;;;6.50;3.40;;;19.00;56.90;;;;;;1934915;74;21026;-57
2022/09/25 13:29:30;;;;;;;1.77;1.40;;;19.00;57.40;;;;;;1934506;73;21027;-57
2022/09/25 13:32:14;;;;;;;1.50;1.35;;;19.00;57.40;;;;;;1934577;74;21622;-57
2022/09/25 13:34:43;;;;;;;1.72;1.42;;;19.00;57.30;;;;;;1927022;74;21094;-57
2022/09/25 13:37:15;;;;;;;2.27;1.30;;;19.10;57.30;;;;;;1934979;74;21469;-57
2022/09/25 13:42:45;;;;;;;4.12;1.67;;;19.20;57.30;;;;;;1935009;74;21100;-56